Time;durP1;ratioP1;P1;durP2;ratioP2;P2;SDS_P1;SDS_P2;PMS_P1;PMS_P2;Temp;Humidity;BMP_temperature;BMP_pressure;BME280_temperature;BME280_humidity;BME280_pressure;Samples;Min_cycle;Max_cycle;Signal;HPM_P1;HPM_P2
2022/08/20 00:00:22;;;;;;;0.00;0.00;;;;;;;;;;5056204;28;20242;-67
2022/08/20 00:02:50;;;;;;;0.00;0.00;;;;;;;;;;5077942;28;20207;-66
2022/08/20 00:05:20;;;;;;;0.00;0.00;;;;;;;;;;5056031;28;20508;-67
2022/08/20 00:07:47;;;;;;;0.00;0.00;;;;;;;;;;5078003;28;20216;-67
2022/08/20 00:10:13;;;;;;;0.00;0.00;;;;;;;;;;5055325;28;20223;-68
2022/08/20 00:12:43;;;;;;;0.00;0.00;;;;;;;;;;5078875;28;20303;-66
2022/08/20 00:15:11;;;;;;;0.00;0.00;;;;;;;;;;5054796;28;20251;-67
2022/08/20 00:17:37;;;;;;;0.00;0.00;;;;;;;;;;5078862;28;20429;-67
2022/08/20 00:20:04;;;;;;;0.00;0.00;;;;;;;;;;5064129;28;20518;-67
2022/08/20 00:22:31;;;;;;;0.00;0.00;;;;;;;;;;5052492;28;20418;-67
2022/08/20 00:24:58;;;;;;;0.03;0.03;;;;;;;;;;5064213;28;20204;-67
2022/08/20 00:27:24;;;;;;;0.00;0.00;;;;;;;;;;5069515;28;20457;-67
2022/08/20 00:29:51;;;;;;;0.00;0.00;;;;;;;;;;5064014;28;20206;-67
2022/08/20 00:32:17;;;;;;;0.00;0.00;;;;;;;;;;5069028;28;20339;-68
2022/08/20 00:34:43;;;;;;;0.00;0.00;;;;;;;;;;5063422;28;20207;-68
2022/08/20 00:37:09;;;;;;;0.00;0.00;;;;;;;;;;5069047;28;20322;-67
2022/08/20 00:39:37;;;;;;;0.00;0.00;;;;;;;;;;5063984;28;20232;-67
2022/08/20 00:42:04;;;;;;;0.00;0.00;;;;;;;;;;5068749;28;20319;-67
2022/08/20 00:44:30;;;;;;;0.00;0.00;;;;;;;;;;5064060;28;20222;-68
2022/08/20 00:46:57;;;;;;;0.00;0.00;;;;;;;;;;5067687;28;20239;-67
2022/08/20 00:49:26;;;;;;;0.00;0.00;;;;;;;;;;5064621;28;20203;-67
2022/08/20 00:51:54;;;;;;;0.00;0.00;;;;;;;;;;5067292;28;20239;-67
2022/08/20 00:54:22;;;;;;;0.00;0.00;;;;;;;;;;5064950;28;20551;-66
2022/08/20 00:56:52;;;;;;;0.00;0.00;;;;;;;;;;5066483;28;20470;-67
2022/08/20 00:59:21;;;;;;;0.00;0.00;;;;;;;;;;5064894;28;20227;-67
2022/08/20 01:01:47;;;;;;;0.00;0.00;;;;;;;;;;5066229;28;20242;-68
2022/08/20 01:04:14;;;;;;;0.00;0.00;;;;;;;;;;5065787;28;20246;-67
2022/08/20 01:06:41;;;;;;;0.00;0.00;;;;;;;;;;5065346;28;20274;-67
2022/08/20 01:09:07;;;;;;;0.00;0.00;;;;;;;;;;5066361;28;20196;-68
2022/08/20 01:11:35;;;;;;;0.00;0.00;;;;;;;;;;5064356;28;20444;-67
2022/08/20 01:14:14;;;;;;;0.00;0.00;;;;;;;;;;5067099;28;20351;-68
2022/08/20 01:16:41;;;;;;;0.00;0.00;;;;;;;;;;5065304;28;20302;-68
2022/08/20 01:19:08;;;;;;;0.00;0.00;;;;;;;;;;5066329;28;20228;-67
2022/08/20 01:21:34;;;;;;;0.00;0.00;;;;;;;;;;5064002;28;20542;-68
2022/08/20 01:24:08;;;;;;;0.00;0.00;;;;;;;;;;5066888;28;20298;-67
2022/08/20 01:26:37;;;;;;;0.00;0.00;;;;;;;;;;5064056;28;20254;-67
2022/08/20 01:29:05;;;;;;;0.00;0.00;;;;;;;;;;5066381;28;20206;-66
2022/08/20 01:31:33;;;;;;;0.00;0.00;;;;;;;;;;5063659;28;20303;-68
2022/08/20 01:34:00;;;;;;;0.00;0.00;;;;;;;;;;5066950;28;20204;-67
2022/08/20 01:36:30;;;;;;;0.00;0.00;;;;;;;;;;5062761;28;20244;-67
2022/08/20 01:38:59;;;;;;;0.00;0.00;;;;;;;;;;5067270;28;20328;-67
2022/08/20 01:41:31;;;;;;;0.00;0.00;;;;;;;;;;5062767;28;20345;-67
2022/08/20 01:43:59;;;;;;;0.00;0.00;;;;;;;;;;5067006;28;20271;-66
2022/08/20 01:46:26;;;;;;;0.00;0.00;;;;;;;;;;5061918;28;20286;-68
2022/08/20 01:48:53;;;;;;;0.00;0.00;;;;;;;;;;5067102;28;20287;-67
2022/08/20 01:51:21;;;;;;;0.00;0.00;;;;;;;;;;5061569;28;20251;-67
2022/08/20 01:53:49;;;;;;;0.00;0.00;;;;;;;;;;5067924;28;20377;-67
2022/08/20 01:56:16;;;;;;;0.00;0.00;;;;;;;;;;5061144;28;20414;-68
2022/08/20 01:58:44;;;;;;;0.00;0.00;;;;;;;;;;5068663;28;20224;-67
2022/08/20 02:01:19;;;;;;;0.00;0.00;;;;;;;;;;5060514;28;20316;-67
2022/08/20 02:03:46;;;;;;;0.00;0.00;;;;;;;;;;5067903;28;20313;-67
2022/08/20 02:06:12;;;;;;;0.00;0.00;;;;;;;;;;5060539;28;20247;-67
2022/08/20 02:08:39;;;;;;;0.00;0.00;;;;;;;;;;5068847;28;20539;-67
2022/08/20 02:11:05;;;;;;;0.00;0.00;;;;;;;;;;5059492;28;20297;-66
2022/08/20 02:13:31;;;;;;;0.00;0.00;;;;;;;;;;5069453;28;20207;-68
2022/08/20 02:15:58;;;;;;;0.00;0.00;;;;;;;;;;5058926;28;20242;-67
2022/08/20 02:18:25;;;;;;;0.00;0.00;;;;;;;;;;5070252;28;20214;-66
2022/08/20 02:20:52;;;;;;;0.00;0.00;;;;;;;;;;5057913;28;20277;-67
2022/08/20 02:23:19;;;;;;;0.00;0.00;;;;;;;;;;5071169;28;20220;-66
2022/08/20 02:25:47;;;;;;;0.00;0.00;;;;;;;;;;5057052;28;20291;-66
2022/08/20 02:28:14;;;;;;;0.00;0.00;;;;;;;;;;5071559;28;20281;-67
2022/08/20 02:30:42;;;;;;;0.00;0.00;;;;;;;;;;5056196;28;20250;-66
2022/08/20 02:33:10;;;;;;;0.10;0.10;;;;;;;;;;5072041;28;20211;-67
2022/08/20 02:35:40;;;;;;;0.00;0.00;;;;;;;;;;5055847;28;20239;-67
2022/08/20 02:38:07;;;;;;;0.00;0.00;;;;;;;;;;5072466;28;20559;-67
2022/08/20 02:40:36;;;;;;;0.00;0.00;;;;;;;;;;5055334;28;20242;-66
2022/08/20 02:43:03;;;;;;;0.00;0.00;;;;;;;;;;5072902;28;20236;-67
2022/08/20 02:45:34;;;;;;;0.00;0.00;;;;;;;;;;5054589;28;20239;-66
2022/08/20 02:48:01;;;;;;;0.00;0.00;;;;;;;;;;5073075;28;20285;-66
2022/08/20 02:50:27;;;;;;;0.00;0.00;;;;;;;;;;5054177;28;20235;-66
2022/08/20 02:52:55;;;;;;;0.10;0.10;;;;;;;;;;5073918;28;20207;-67
2022/08/20 02:55:22;;;;;;;0.00;0.00;;;;;;;;;;5053547;28;20224;-67
2022/08/20 02:57:48;;;;;;;0.00;0.00;;;;;;;;;;5077137;28;20214;-66
2022/08/20 03:00:18;;;;;;;0.00;0.00;;;;;;;;;;5056910;28;20223;-68
2022/08/20 03:02:44;;;;;;;0.00;0.00;;;;;;;;;;5078959;28;20253;-66
2022/08/20 03:05:11;;;;;;;0.00;0.00;;;;;;;;;;5056190;28;20249;-65
2022/08/20 03:07:41;;;;;;;0.00;0.00;;;;;;;;;;5080279;28;20211;-66
2022/08/20 03:10:11;;;;;;;0.00;0.00;;;;;;;;;;5055950;28;20207;-66
2022/08/20 03:12:37;;;;;;;0.00;0.00;;;;;;;;;;5080454;28;20207;-66
2022/08/20 03:15:04;;;;;;;0.00;0.00;;;;;;;;;;5065287;28;20209;-67
2022/08/20 03:17:31;;;;;;;0.00;0.00;;;;;;;;;;5053645;28;20286;-66
2022/08/20 03:19:57;;;;;;;0.00;0.00;;;;;;;;;;5064899;28;20238;-67
2022/08/20 03:22:24;;;;;;;0.00;0.00;;;;;;;;;;5070620;28;20243;-66
2022/08/20 03:24:50;;;;;;;0.00;0.00;;;;;;;;;;5065130;28;20206;-67
2022/08/20 03:27:18;;;;;;;0.00;0.00;;;;;;;;;;5070273;28;20258;-66
2022/08/20 03:29:44;;;;;;;0.10;0.10;;;;;;;;;;5065306;28;20529;-66
2022/08/20 03:32:10;;;;;;;0.00;0.00;;;;;;;;;;5070511;28;20243;-67
2022/08/20 03:34:37;;;;;;;0.05;0.05;;;;;;;;;;5064795;28;20219;-67
2022/08/20 03:37:03;;;;;;;0.00;0.00;;;;;;;;;;5070034;28;20302;-66
2022/08/20 03:39:29;;;;;;;0.03;0.03;;;;;;;;;;5065424;28;20418;-67
2022/08/20 03:41:56;;;;;;;0.00;0.00;;;;;;;;;;5069360;28;20239;-67
2022/08/20 03:44:25;;;;;;;0.00;0.00;;;;;;;;;;5066105;28;20214;-67
2022/08/20 03:46:52;;;;;;;0.00;0.00;;;;;;;;;;5068121;28;20235;-67
2022/08/20 03:49:18;;;;;;;0.00;0.00;;;;;;;;;;5066563;28;20359;-67
2022/08/20 03:51:44;;;;;;;0.00;0.00;;;;;;;;;;5067072;28;20239;-67
2022/08/20 03:54:10;;;;;;;0.00;0.00;;;;;;;;;;5067484;28;20211;-67
2022/08/20 03:56:37;;;;;;;0.00;0.00;;;;;;;;;;5065964;28;20297;-67
2022/08/20 03:59:03;;;;;;;0.00;0.00;;;;;;;;;;5067524;28;20235;-66
2022/08/20 04:01:38;;;;;;;0.00;0.00;;;;;;;;;;5064896;28;20283;-67
2022/08/20 04:04:05;;;;;;;0.03;0.03;;;;;;;;;;5068019;28;20229;-66
2022/08/20 04:06:31;;;;;;;0.00;0.00;;;;;;;;;;5064599;28;20298;-66
2022/08/20 04:08:57;;;;;;;0.00;0.00;;;;;;;;;;5068416;28;20472;-67
2022/08/20 04:11:24;;;;;;;0.00;0.00;;;;;;;;;;5064338;28;20266;-66
2022/08/20 04:13:50;;;;;;;0.10;0.10;;;;;;;;;;5069979;28;20214;-67
2022/08/20 04:16:17;;;;;;;0.00;0.00;;;;;;;;;;5063511;28;20239;-67
2022/08/20 04:18:46;;;;;;;0.00;0.00;;;;;;;;;;5070686;28;20275;-64
2022/08/20 04:21:13;;;;;;;0.00;0.00;;;;;;;;;;5062441;28;20247;-67
2022/08/20 04:23:39;;;;;;;0.00;0.00;;;;;;;;;;5071052;28;20204;-67
2022/08/20 04:26:06;;;;;;;0.00;0.00;;;;;;;;;;5061659;28;20306;-67
2022/08/20 04:28:32;;;;;;;0.03;0.03;;;;;;;;;;5071694;28;20216;-66
2022/08/20 04:30:59;;;;;;;0.05;0.05;;;;;;;;;;5060327;28;20301;-66
2022/08/20 04:33:27;;;;;;;0.00;0.00;;;;;;;;;;5073053;28;20476;-66
2022/08/20 04:35:54;;;;;;;0.00;0.00;;;;;;;;;;5060022;28;20334;-66
2022/08/20 04:38:22;;;;;;;0.03;0.03;;;;;;;;;;5072882;28;20284;-67
2022/08/20 04:40:57;;;;;;;0.00;0.00;;;;;;;;;;5059251;28;20501;-67
2022/08/20 04:43:24;;;;;;;0.00;0.00;;;;;;;;;;5072636;28;20264;-65
2022/08/20 04:45:51;;;;;;;0.00;0.00;;;;;;;;;;5059401;28;20257;-66
2022/08/20 04:48:17;;;;;;;0.03;0.03;;;;;;;;;;5073078;28;20363;-66
2022/08/20 04:50:45;;;;;;;0.00;0.00;;;;;;;;;;5058503;28;20307;-67
2022/08/20 04:53:15;;;;;;;0.00;0.00;;;;;;;;;;5073938;28;20204;-68
2022/08/20 04:55:42;;;;;;;0.00;0.00;;;;;;;;;;5058124;28;20243;-65
2022/08/20 04:58:10;;;;;;;0.00;0.00;;;;;;;;;;5074090;28;20204;-66
2022/08/20 05:00:37;;;;;;;0.00;0.00;;;;;;;;;;5057373;28;20302;-66
2022/08/20 05:03:05;;;;;;;0.00;0.00;;;;;;;;;;5074853;28;20204;-66
2022/08/20 05:05:33;;;;;;;0.00;0.00;;;;;;;;;;5056444;28;20248;-66
2022/08/20 05:08:00;;;;;;;0.00;0.00;;;;;;;;;;5074885;28;20239;-67
2022/08/20 05:10:28;;;;;;;0.00;0.00;;;;;;;;;;5055674;28;20314;-67
2022/08/20 05:12:55;;;;;;;0.00;0.00;;;;;;;;;;5075610;28;20276;-67
2022/08/20 05:15:23;;;;;;;0.00;0.00;;;;;;;;;;5055078;28;20532;-66
2022/08/20 05:17:54;;;;;;;0.00;0.00;;;;;;;;;;5076028;28;20210;-67
2022/08/20 05:20:20;;;;;;;0.00;0.00;;;;;;;;;;5054883;28;20447;-67
2022/08/20 05:22:47;;;;;;;0.00;0.00;;;;;;;;;;5076425;28;20381;-66
2022/08/20 05:25:13;;;;;;;0.00;0.00;;;;;;;;;;5053988;28;20456;-68
2022/08/20 05:27:41;;;;;;;0.00;0.00;;;;;;;;;;5077169;28;20207;-66
2022/08/20 05:30:10;;;;;;;0.05;0.05;;;;;;;;;;5052856;28;20210;-69
2022/08/20 05:32:37;;;;;;;0.00;0.00;;;;;;;;;;5077326;28;20219;-66
2022/08/20 05:35:04;;;;;;;0.00;0.00;;;;;;;;;;5062844;28;20204;-66
2022/08/20 05:37:31;;;;;;;0.00;0.00;;;;;;;;;;5051392;28;20275;-66
2022/08/20 05:39:57;;;;;;;0.00;0.00;;;;;;;;;;5062821;28;20416;-66
2022/08/20 05:42:24;;;;;;;0.10;0.10;;;;;;;;;;5067874;28;20246;-66
2022/08/20 05:44:51;;;;;;;0.00;0.00;;;;;;;;;;5062422;28;20289;-67
2022/08/20 05:47:18;;;;;;;0.10;0.10;;;;;;;;;;5067575;28;20247;-66
2022/08/20 05:49:45;;;;;;;0.00;0.00;;;;;;;;;;5062519;28;20234;-67
2022/08/20 05:52:11;;;;;;;0.00;0.00;;;;;;;;;;5067672;28;20238;-67
2022/08/20 05:54:38;;;;;;;0.00;0.00;;;;;;;;;;5062150;28;20261;-67
2022/08/20 05:57:05;;;;;;;0.00;0.00;;;;;;;;;;5067432;28;20550;-65
2022/08/20 05:59:33;;;;;;;0.00;0.00;;;;;;;;;;5062628;28;20278;-67
2022/08/20 06:02:00;;;;;;;0.05;0.05;;;;;;;;;;5066184;28;20250;-66
2022/08/20 06:04:27;;;;;;;0.00;0.00;;;;;;;;;;5063728;28;20207;-67
2022/08/20 06:06:57;;;;;;;0.00;0.00;;;;;;;;;;5065843;28;20328;-67
2022/08/20 06:09:25;;;;;;;0.00;0.00;;;;;;;;;;5063380;28;20200;-67
2022/08/20 06:11:51;;;;;;;0.00;0.00;;;;;;;;;;5065648;28;20496;-67
2022/08/20 06:14:19;;;;;;;0.00;0.00;;;;;;;;;;5064245;28;20211;-67
2022/08/20 06:16:45;;;;;;;0.00;0.00;;;;;;;;;;5064642;28;20249;-66
2022/08/20 06:19:13;;;;;;;0.00;0.00;;;;;;;;;;5064808;28;20230;-66
2022/08/20 06:21:40;;;;;;;0.00;0.00;;;;;;;;;;5063645;28;20241;-66
2022/08/20 06:24:06;;;;;;;0.00;0.00;;;;;;;;;;5065719;28;20204;-66
2022/08/20 06:26:34;;;;;;;0.00;0.00;;;;;;;;;;5062939;28;20253;-66
2022/08/20 06:29:00;;;;;;;0.08;0.08;;;;;;;;;;5066018;28;20208;-66
2022/08/20 06:31:27;;;;;;;0.00;0.00;;;;;;;;;;5061624;28;20258;-66
2022/08/20 06:33:53;;;;;;;0.00;0.00;;;;;;;;;;5066543;28;20256;-67
2022/08/20 06:36:21;;;;;;;0.00;0.00;;;;;;;;;;5061236;28;20255;-66
2022/08/20 06:38:47;;;;;;;0.00;0.00;;;;;;;;;;5067685;28;20208;-66
2022/08/20 06:41:14;;;;;;;0.00;0.00;;;;;;;;;;5060307;28;20255;-67
2022/08/20 06:43:40;;;;;;;0.00;0.00;;;;;;;;;;5068365;28;20451;-66
2022/08/20 06:46:07;;;;;;;0.00;0.00;;;;;;;;;;5059424;28;20239;-66
2022/08/20 06:48:34;;;;;;;0.00;0.00;;;;;;;;;;5069004;28;20258;-66
2022/08/20 06:51:00;;;;;;;0.00;0.00;;;;;;;;;;5058411;28;20239;-67
2022/08/20 06:53:28;;;;;;;0.00;0.00;;;;;;;;;;5069963;28;20207;-66
2022/08/20 06:55:55;;;;;;;0.00;0.00;;;;;;;;;;5057680;28;20578;-66
2022/08/20 06:58:22;;;;;;;0.00;0.00;;;;;;;;;;5070316;28;20208;-66
2022/08/20 07:00:48;;;;;;;0.00;0.00;;;;;;;;;;5056609;28;20246;-66
2022/08/20 07:03:15;;;;;;;0.00;0.00;;;;;;;;;;5071241;28;20282;-66
2022/08/20 07:05:42;;;;;;;0.00;0.00;;;;;;;;;;5055918;28;20466;-65
2022/08/20 07:08:08;;;;;;;0.00;0.00;;;;;;;;;;5071805;28;20274;-66
2022/08/20 07:10:36;;;;;;;0.00;0.00;;;;;;;;;;5055056;28;20312;-65
2022/08/20 07:13:03;;;;;;;0.00;0.00;;;;;;;;;;5072358;28;20210;-67
2022/08/20 07:15:29;;;;;;;0.00;0.00;;;;;;;;;;5054248;28;20491;-65
2022/08/20 07:17:57;;;;;;;0.00;0.00;;;;;;;;;;5073317;28;20214;-66
2022/08/20 07:20:24;;;;;;;0.00;0.00;;;;;;;;;;5053112;28;20227;-66
2022/08/20 07:22:50;;;;;;;0.00;0.00;;;;;;;;;;5073873;28;20220;-68
2022/08/20 07:25:18;;;;;;;0.00;0.00;;;;;;;;;;5052430;28;20280;-67
2022/08/20 07:27:45;;;;;;;0.00;0.00;;;;;;;;;;5074988;28;20475;-66
2022/08/20 07:32:58;;;;;;;0.00;0.00;;;;;;;;;;5072837;28;20299;-66
2022/08/20 07:35:25;;;;;;;0.00;0.00;;;;;;;;;;5053512;28;20309;-66
2022/08/20 07:37:53;;;;;;;0.00;0.00;;;;;;;;;;5074081;28;20231;-67
2022/08/20 07:40:21;;;;;;;0.00;0.00;;;;;;;;;;5053165;28;20215;-66
2022/08/20 07:42:49;;;;;;;0.00;0.00;;;;;;;;;;5074145;28;20204;-67
2022/08/20 07:45:17;;;;;;;0.10;0.10;;;;;;;;;;5055662;28;20219;-67
2022/08/20 07:47:44;;;;;;;0.00;0.00;;;;;;;;;;5078713;28;20207;-66
2022/08/20 07:50:11;;;;;;;0.00;0.00;;;;;;;;;;5055522;28;20204;-66
2022/08/20 07:52:38;;;;;;;0.00;0.00;;;;;;;;;;5078894;28;20219;-66
2022/08/20 07:55:07;;;;;;;0.10;0.10;;;;;;;;;;5064362;28;20269;-66
2022/08/20 07:57:34;;;;;;;0.00;0.00;;;;;;;;;;5053297;28;20204;-66
2022/08/20 08:00:02;;;;;;;0.00;0.00;;;;;;;;;;5064305;28;20278;-66
2022/08/20 08:02:28;;;;;;;0.00;0.00;;;;;;;;;;5069465;28;20240;-67
2022/08/20 08:04:55;;;;;;;0.00;0.00;;;;;;;;;;5064670;28;20218;-66
2022/08/20 08:07:22;;;;;;;0.00;0.00;;;;;;;;;;5069333;28;20534;-66
2022/08/20 08:09:49;;;;;;;0.00;0.00;;;;;;;;;;5064191;28;20291;-67
2022/08/20 08:12:16;;;;;;;0.00;0.00;;;;;;;;;;5069595;28;20235;-66
2022/08/20 08:14:44;;;;;;;0.00;0.00;;;;;;;;;;5064092;28;20291;-66
2022/08/20 08:17:12;;;;;;;0.00;0.00;;;;;;;;;;5069538;28;20299;-65
2022/08/20 08:19:40;;;;;;;0.00;0.00;;;;;;;;;;5064067;28;20243;-65
2022/08/20 08:22:10;;;;;;;0.00;0.00;;;;;;;;;;5069243;28;20242;-68
2022/08/20 08:24:36;;;;;;;0.00;0.00;;;;;;;;;;5064066;28;20384;-66
2022/08/20 08:27:03;;;;;;;0.00;0.00;;;;;;;;;;5069052;28;20239;-67
2022/08/20 08:29:29;;;;;;;0.00;0.00;;;;;;;;;;5063891;28;20401;-67
2022/08/20 08:31:56;;;;;;;0.00;0.00;;;;;;;;;;5067605;28;20552;-67
2022/08/20 08:34:24;;;;;;;0.00;0.00;;;;;;;;;;5064968;28;20371;-66
2022/08/20 08:36:50;;;;;;;0.00;0.00;;;;;;;;;;5067495;28;20246;-66
2022/08/20 08:39:17;;;;;;;0.00;0.00;;;;;;;;;;5065849;28;20204;-67
2022/08/20 08:41:48;;;;;;;0.00;0.00;;;;;;;;;;5066047;28;20242;-66
2022/08/20 08:44:20;;;;;;;0.00;0.00;;;;;;;;;;5065536;28;20230;-66
2022/08/20 08:46:48;;;;;;;0.00;0.00;;;;;;;;;;5066629;28;20242;-66
2022/08/20 08:49:16;;;;;;;0.00;0.00;;;;;;;;;;5066066;28;20388;-67
2022/08/20 08:51:47;;;;;;;0.00;0.00;;;;;;;;;;5066070;28;20257;-66
2022/08/20 08:54:16;;;;;;;0.00;0.00;;;;;;;;;;5065757;28;20236;-66
2022/08/20 08:56:43;;;;;;;0.00;0.00;;;;;;;;;;5065704;28;20309;-67
2022/08/20 08:59:09;;;;;;;0.00;0.00;;;;;;;;;;5066306;28;20253;-67
2022/08/20 09:01:41;;;;;;;0.00;0.00;;;;;;;;;;5064932;28;20310;-67
2022/08/20 09:04:07;;;;;;;0.00;0.00;;;;;;;;;;5066563;28;20552;-67
2022/08/20 09:06:34;;;;;;;0.00;0.00;;;;;;;;;;5064571;28;20255;-67
2022/08/20 09:09:03;;;;;;;0.00;0.00;;;;;;;;;;5067448;28;20446;-65
2022/08/20 09:11:31;;;;;;;0.00;0.00;;;;;;;;;;5064115;28;20240;-67
2022/08/20 09:14:00;;;;;;;0.00;0.00;;;;;;;;;;5067818;28;20275;-67
2022/08/20 09:16:27;;;;;;;0.00;0.00;;;;;;;;;;5063628;28;20276;-66
2022/08/20 09:18:54;;;;;;;0.00;0.00;;;;;;;;;;5067771;28;20208;-66
2022/08/20 09:21:22;;;;;;;0.00;0.00;;;;;;;;;;5062559;28;20254;-74
2022/08/20 09:23:48;;;;;;;0.00;0.00;;;;;;;;;;5068904;28;20411;-73
2022/08/20 09:26:16;;;;;;;0.00;0.00;;;;;;;;;;5062074;28;20310;-74
2022/08/20 09:28:43;;;;;;;0.00;0.00;;;;;;;;;;5069604;28;20215;-75
2022/08/20 09:31:09;;;;;;;0.00;0.00;;;;;;;;;;5061228;28;20578;-76
2022/08/20 09:33:35;;;;;;;0.03;0.03;;;;;;;;;;5070103;28;20203;-74
2022/08/20 09:36:02;;;;;;;0.00;0.00;;;;;;;;;;5060696;28;20594;-75
2022/08/20 09:38:28;;;;;;;0.08;0.08;;;;;;;;;;5071032;28;20215;-76
2022/08/20 09:40:55;;;;;;;0.00;0.00;;;;;;;;;;5059053;28;20433;-78
2022/08/20 09:43:22;;;;;;;0.00;0.00;;;;;;;;;;5071837;28;20218;-78
2022/08/20 09:45:49;;;;;;;0.00;0.00;;;;;;;;;;5058110;28;20302;-77
2022/08/20 09:48:15;;;;;;;0.00;0.00;;;;;;;;;;5072510;28;20424;-77
2022/08/20 09:50:44;;;;;;;0.00;0.00;;;;;;;;;;5057388;28;20483;-77
2022/08/20 09:53:10;;;;;;;0.00;0.00;;;;;;;;;;5072927;28;20279;-77
2022/08/20 09:55:38;;;;;;;0.10;0.10;;;;;;;;;;5056607;28;20250;-77
2022/08/20 09:58:07;;;;;;;0.00;0.00;;;;;;;;;;5073607;28;20242;-77
2022/08/20 10:00:35;;;;;;;0.00;0.00;;;;;;;;;;5055744;28;20302;-77
2022/08/20 10:03:02;;;;;;;0.00;0.00;;;;;;;;;;5073875;28;20265;-77
2022/08/20 10:05:28;;;;;;;0.00;0.00;;;;;;;;;;5055470;28;20239;-77
2022/08/20 10:07:55;;;;;;;0.00;0.00;;;;;;;;;;5074072;28;20385;-77
2022/08/20 10:10:21;;;;;;;0.00;0.00;;;;;;;;;;5054026;28;20219;-78
2022/08/20 10:12:48;;;;;;;0.00;0.00;;;;;;;;;;5075727;28;20242;-77
2022/08/20 10:15:14;;;;;;;0.10;0.10;;;;;;;;;;5052956;28;20275;-76
2022/08/20 10:17:42;;;;;;;0.00;0.00;;;;;;;;;;5076781;28;20215;-77
2022/08/20 10:20:10;;;;;;;0.05;0.05;;;;;;;;;;5054033;28;20227;-76
2022/08/20 10:22:37;;;;;;;0.00;0.00;;;;;;;;;;5077682;28;20235;-77
2022/08/20 10:25:03;;;;;;;0.00;0.00;;;;;;;;;;5062367;28;20277;-75
2022/08/20 10:27:30;;;;;;;0.00;0.00;;;;;;;;;;5051211;28;20283;-67
2022/08/20 10:29:56;;;;;;;0.00;0.00;;;;;;;;;;5061988;28;20228;-67
2022/08/20 10:32:23;;;;;;;0.00;0.00;;;;;;;;;;5067643;28;20243;-80
2022/08/20 10:34:50;;;;;;;0.00;0.00;;;;;;;;;;5063329;28;20215;-77
2022/08/20 10:37:20;;;;;;;0.00;0.00;;;;;;;;;;5068228;28;20238;-74
2022/08/20 10:39:47;;;;;;;0.00;0.00;;;;;;;;;;5063006;28;20446;-75
2022/08/20 10:42:14;;;;;;;0.00;0.00;;;;;;;;;;5067142;28;20239;-73
2022/08/20 10:44:40;;;;;;;0.05;0.05;;;;;;;;;;5061804;28;20389;-76
2022/08/20 10:47:18;;;;;;;0.00;0.00;;;;;;;;;;5067078;28;20453;-76
2022/08/20 10:49:44;;;;;;;0.00;0.00;;;;;;;;;;5061733;28;20390;-78
2022/08/20 10:52:12;;;;;;;0.00;0.00;;;;;;;;;;5066815;28;20234;-76
2022/08/20 10:54:40;;;;;;;0.00;0.00;;;;;;;;;;5061501;28;20267;-77
2022/08/20 10:57:07;;;;;;;0.00;0.00;;;;;;;;;;5067110;28;20249;-77
2022/08/20 10:59:37;;;;;;;0.00;0.00;;;;;;;;;;5062179;28;20204;-78
2022/08/20 11:02:04;;;;;;;0.00;0.00;;;;;;;;;;5066788;28;20227;-76
2022/08/20 11:04:30;;;;;;;0.00;0.00;;;;;;;;;;5061444;28;20269;-76
2022/08/20 11:06:57;;;;;;;0.00;0.00;;;;;;;;;;5065996;28;20249;-76
2022/08/20 11:09:24;;;;;;;0.00;0.00;;;;;;;;;;5062877;28;20242;-75
2022/08/20 11:11:51;;;;;;;0.10;0.10;;;;;;;;;;5064953;28;20239;-74
2022/08/20 11:14:17;;;;;;;0.00;0.00;;;;;;;;;;5063809;28;20546;-75
2022/08/20 11:16:43;;;;;;;0.00;0.00;;;;;;;;;;5064104;28;20246;-67
2022/08/20 11:19:10;;;;;;;0.00;0.00;;;;;;;;;;5067602;28;20204;-67
2022/08/20 11:21:36;;;;;;;0.00;0.00;;;;;;;;;;5066889;28;20302;-67
2022/08/20 11:24:03;;;;;;;0.00;0.00;;;;;;;;;;5069421;28;20232;-68
2022/08/20 11:26:30;;;;;;;0.00;0.00;;;;;;;;;;5065928;28;20255;-66
2022/08/20 11:28:57;;;;;;;0.00;0.00;;;;;;;;;;5070216;28;20342;-67
2022/08/20 11:31:23;;;;;;;0.00;0.00;;;;;;;;;;5064789;28;20290;-67
2022/08/20 11:33:49;;;;;;;0.00;0.00;;;;;;;;;;5070886;28;20204;-67
2022/08/20 11:36:16;;;;;;;0.00;0.00;;;;;;;;;;5063910;28;20243;-67
2022/08/20 11:38:45;;;;;;;0.00;0.00;;;;;;;;;;5071772;28;20227;-68
2022/08/20 11:41:13;;;;;;;0.10;0.10;;;;;;;;;;5063404;28;20304;-69
2022/08/20 11:43:40;;;;;;;0.00;0.00;;;;;;;;;;5071844;28;20291;-68
2022/08/20 11:46:07;;;;;;;0.00;0.00;;;;;;;;;;5062550;28;20275;-67
2022/08/20 11:48:33;;;;;;;0.00;0.00;;;;;;;;;;5072364;28;20271;-69
2022/08/20 11:50:59;;;;;;;0.00;0.00;;;;;;;;;;5061739;28;20239;-68
2022/08/20 11:53:26;;;;;;;0.10;0.10;;;;;;;;;;5073220;28;20441;-68
2022/08/20 11:55:52;;;;;;;0.00;0.00;;;;;;;;;;5060690;28;20302;-68
2022/08/20 11:58:19;;;;;;;0.00;0.00;;;;;;;;;;5074122;28;20207;-68
2022/08/20 12:00:47;;;;;;;0.00;0.00;;;;;;;;;;5059105;28;20298;-68
2022/08/20 12:03:17;;;;;;;0.00;0.00;;;;;;;;;;5075140;28;20305;-69
2022/08/20 12:05:44;;;;;;;0.00;0.00;;;;;;;;;;5059569;28;20405;-68
2022/08/20 12:08:12;;;;;;;0.00;0.00;;;;;;;;;;5074600;28;20282;-67
2022/08/20 12:10:38;;;;;;;0.00;0.00;;;;;;;;;;5058523;28;20243;-68
2022/08/20 12:13:05;;;;;;;0.00;0.00;;;;;;;;;;5075678;28;20207;-68
2022/08/20 12:15:32;;;;;;;0.00;0.00;;;;;;;;;;5057849;28;20526;-68
2022/08/20 12:18:00;;;;;;;0.00;0.00;;;;;;;;;;5076320;28;20443;-68
2022/08/20 12:20:27;;;;;;;0.03;0.03;;;;;;;;;;5057362;28;20398;-71
2022/08/20 12:22:53;;;;;;;0.00;0.00;;;;;;;;;;5077155;28;20228;-72
2022/08/20 12:25:20;;;;;;;0.00;0.00;;;;;;;;;;5056372;28;20226;-73
2022/08/20 12:27:46;;;;;;;0.00;0.00;;;;;;;;;;5078055;28;20212;-74
2022/08/20 12:30:16;;;;;;;0.05;0.05;;;;;;;;;;5054724;28;20204;-72
2022/08/20 12:32:43;;;;;;;0.00;0.00;;;;;;;;;;5078243;28;20236;-73
2022/08/20 12:35:12;;;;;;;0.00;0.00;;;;;;;;;;5054966;28;20212;-72
2022/08/20 12:37:38;;;;;;;0.00;0.00;;;;;;;;;;5078790;28;20216;-73
2022/08/20 12:40:06;;;;;;;0.00;0.00;;;;;;;;;;5059887;28;20238;-66
2022/08/20 12:42:33;;;;;;;0.00;0.00;;;;;;;;;;5078420;28;20298;-66
2022/08/20 12:45:00;;;;;;;0.00;0.00;;;;;;;;;;5063688;28;20214;-66
2022/08/20 12:47:27;;;;;;;0.00;0.00;;;;;;;;;;5068961;28;20248;-67
2022/08/20 12:49:55;;;;;;;0.00;0.00;;;;;;;;;;5063494;28;20229;-66
2022/08/20 12:52:24;;;;;;;0.00;0.00;;;;;;;;;;5068822;28;20519;-67
2022/08/20 12:54:50;;;;;;;0.00;0.00;;;;;;;;;;5063708;28;20550;-66
2022/08/20 12:57:22;;;;;;;0.00;0.00;;;;;;;;;;5068843;28;20238;-67
2022/08/20 12:59:48;;;;;;;0.00;0.00;;;;;;;;;;5063595;28;20193;-66
2022/08/20 13:02:16;;;;;;;0.00;0.00;;;;;;;;;;5068550;28;20231;-67
2022/08/20 13:04:42;;;;;;;0.00;0.00;;;;;;;;;;5063075;28;20207;-68
2022/08/20 13:07:10;;;;;;;0.00;0.00;;;;;;;;;;5068541;28;20306;-68
2022/08/20 13:09:38;;;;;;;0.00;0.00;;;;;;;;;;5063546;28;20275;-67
2022/08/20 13:12:04;;;;;;;0.00;0.00;;;;;;;;;;5068547;28;20246;-67
2022/08/20 13:14:31;;;;;;;0.00;0.00;;;;;;;;;;5062916;28;20210;-67
2022/08/20 13:16:57;;;;;;;0.00;0.00;;;;;;;;;;5067374;28;20238;-66
2022/08/20 13:19:24;;;;;;;0.00;0.00;;;;;;;;;;5064333;28;20503;-67
2022/08/20 13:21:50;;;;;;;0.00;0.00;;;;;;;;;;5066169;28;20239;-67
2022/08/20 13:24:19;;;;;;;0.00;0.00;;;;;;;;;;5064968;28;20204;-68
2022/08/20 13:26:46;;;;;;;0.10;0.10;;;;;;;;;;5065745;28;20265;-68
2022/08/20 13:29:13;;;;;;;0.00;0.00;;;;;;;;;;5065255;28;20423;-68
2022/08/20 13:31:40;;;;;;;0.00;0.00;;;;;;;;;;5064387;28;20302;-67
2022/08/20 13:34:06;;;;;;;0.00;0.00;;;;;;;;;;5066165;28;20200;-68
2022/08/20 13:36:33;;;;;;;0.00;0.00;;;;;;;;;;5063761;28;20313;-67
2022/08/20 13:38:59;;;;;;;0.00;0.00;;;;;;;;;;5066362;28;20205;-68
2022/08/20 13:41:26;;;;;;;0.00;0.00;;;;;;;;;;5061970;28;20243;-67
2022/08/20 13:43:54;;;;;;;0.00;0.00;;;;;;;;;;5067693;28;20227;-67
2022/08/20 13:46:20;;;;;;;0.00;0.00;;;;;;;;;;5061802;28;20239;-68
2022/08/20 13:48:46;;;;;;;0.00;0.00;;;;;;;;;;5068218;28;20274;-68
2022/08/20 13:51:13;;;;;;;0.00;0.00;;;;;;;;;;5060852;28;20239;-67
2022/08/20 13:53:39;;;;;;;0.00;0.00;;;;;;;;;;5069100;28;20206;-68
2022/08/20 13:56:05;;;;;;;0.00;0.00;;;;;;;;;;5060021;28;20446;-67
2022/08/20 13:58:32;;;;;;;0.00;0.00;;;;;;;;;;5070002;28;20219;-68
2022/08/20 14:01:00;;;;;;;0.00;0.00;;;;;;;;;;5059136;28;20353;-68
2022/08/20 14:03:26;;;;;;;0.00;0.00;;;;;;;;;;5070479;28;20270;-69
2022/08/20 14:05:52;;;;;;;0.00;0.00;;;;;;;;;;5058315;28;20318;-67
2022/08/20 14:08:20;;;;;;;0.00;0.00;;;;;;;;;;5071189;28;20279;-68
2022/08/20 14:10:49;;;;;;;0.00;0.00;;;;;;;;;;5057509;28;20245;-68
2022/08/20 14:13:16;;;;;;;0.00;0.00;;;;;;;;;;5071922;28;20207;-68
2022/08/20 14:15:42;;;;;;;0.00;0.00;;;;;;;;;;5057055;28;20298;-68
2022/08/20 14:18:10;;;;;;;0.00;0.00;;;;;;;;;;5072582;28;20236;-68
2022/08/20 14:20:37;;;;;;;0.00;0.00;;;;;;;;;;5055867;28;20313;-67
2022/08/20 14:23:03;;;;;;;0.00;0.00;;;;;;;;;;5073466;28;20251;-67
2022/08/20 14:25:30;;;;;;;0.00;0.00;;;;;;;;;;5054926;28;20590;-67
2022/08/20 14:27:57;;;;;;;0.03;0.03;;;;;;;;;;5074455;28;20234;-68
2022/08/20 14:30:25;;;;;;;0.00;0.00;;;;;;;;;;5054500;28;20497;-68
2022/08/20 14:32:51;;;;;;;0.10;0.10;;;;;;;;;;5074861;28;20246;-68
2022/08/20 14:35:19;;;;;;;0.00;0.00;;;;;;;;;;5053372;28;20211;-67
2022/08/20 14:37:47;;;;;;;0.00;0.00;;;;;;;;;;5075786;28;20401;-68
2022/08/20 14:40:14;;;;;;;0.00;0.00;;;;;;;;;;5052760;28;20211;-68
2022/08/20 14:42:41;;;;;;;0.00;0.00;;;;;;;;;;5076186;28;20235;-67
2022/08/20 14:45:08;;;;;;;0.00;0.00;;;;;;;;;;5052051;28;20199;-68